Nearby METAR Reports

 

EGUW - Wattisham Raf, United Kingdom
Distance from station: SW 12mi, 19km
Updated: 22/11/2019 03:50
Light rain, Mostly cloudy
Light rain, Mostly cloudy
 Wind from SSE
Wind: SSE 10 mph , 17 km/h
Temperature: 7°C
Wind Chill: 4°C
Dew Point: 7°C
Humidity: 100%
Barometer: 997 hPa
Summary: Light rain
Clouds: Mostly cloudy
Visibility: 5 miles , 8 km
Cloud details: Few Clouds 213 m
Mostly cloudy 457 m
2019/11/22 03:50 EGUW 220350Z AUTO 15009KT 8000 -RA FEW007/// BKN015/// 07/07 Q0997
EGUL - Lakenheath Raf, United Kingdom
Distance from station: WNW 29mi, 47km
Updated: 21/11/2019 21:56
NOT Current
Overcast
Overcast
 Wind from E
Wind: E 9 mph , 15 km/h
Temperature: 6°C
Wind Chill: 3°C
Dew Point: 4°C
Humidity: 87%
Barometer: 1000 hPa
Clouds: Overcast
Visibility: 6 miles , 10 km
Cloud details: Overcast 488 m
2019/11/21 21:56 EGUL 212156Z COR 09008KT 9999 OVC016 06/04 A2953 RMK SLP004 T00630043 LAST $ COR 2157
 
EGUN - Mildenhall Raf, United Kingdom
Distance from station: WNW 32mi, 51km
Updated: 22/11/2019 04:22
Light rain, Mostly cloudy
Light rain, Mostly cloudy
 Wind from SE
Wind: SE 12 mph , 19 km/h
Temperature: 8°C
Wind Chill: 4°C
Dew Point: 8°C
Humidity: 100%
Barometer: 996.6 hPa
Summary: Light rain
Clouds: Mostly cloudy
Visibility: 6 miles , 10 km
Cloud details: Few Clouds 488 m
Partly cloudy 671 m
Mostly cloudy 1128 m
2019/11/22 04:22 EGUN 220422Z 13010KT 9999 -RA FEW016 SCT022 BKN037 08/08 A2943 RMK AO2A RAB02 SLP969 $
EGSH - Norwich Wea Cntr, United Kingdom
Distance from station: N 32mi, 52km
Updated: 22/11/2019 04:20
Overcast
Overcast
 Wind from SE
Wind: SE 8 mph , 13 km/h
Temperature: 8°C
Wind Chill: 6°C
Dew Point: 7°C
Humidity: 93%
Barometer: 998 hPa
Clouds: Overcast
Visibility: 6 miles , 10 km
Cloud details: Mostly cloudy 610 m
Overcast 762 m
2019/11/22 04:20 EGSH 220420Z AUTO 13007KT 100V160 9999 BKN020/// OVC025/// 08/07 Q0998
 
EGYM - Marham Raf, United Kingdom
Distance from station: NW 39mi, 62km
Updated: 22/11/2019 03:50
Haze, Overcast
Haze, Overcast
 Wind from SE
Wind: SE 10 mph , 17 km/h
Temperature: 7°C
Wind Chill: 4°C
Dew Point: 7°C
Humidity: 100%
Barometer: 997 hPa
Summary: Haze
Clouds: Overcast
Visibility: 2 miles , 4 km
Cloud details: Overcast 305 m
2019/11/22 03:50 EGYM 220350Z 13009KT 4000 HZ OVC010 07/07 Q0997 GRN
EGSC - Cambridge, United Kingdom
Distance from station: W 43mi, 69km
Updated: 21/11/2019 17:50
NOT Current
Overcast
Overcast
 Wind from E
Wind: E 7 mph , 11 km/h
Temperature: 5°C
Wind Chill: 2°C
Dew Point: 4°C
Humidity: 93%
Barometer: 1001 hPa
Clouds: Overcast
Visibility: 4 miles , 6 km
Cloud details: Overcast 122 m
2019/11/21 17:50 EGSC 211750Z 10006KT 6000 OVC004 05/04 Q1001
 
EGSS - Stansted Airport, United Kingdom
Distance from station: WSW 47mi, 76km
Updated: 22/11/2019 04:20
Mostly cloudy
Mostly cloudy
 Wind from SE
Wind: SE 10 mph , 17 km/h
Temperature: 7°C
Wind Chill: 4°C
Dew Point: 7°C
Humidity: 100%
Barometer: 997 hPa
Clouds: Mostly cloudy
Visibility: 6 miles , 10 km
Cloud details: Mostly cloudy 122 m
2019/11/22 04:20 EGSS 220420Z AUTO 14009KT 9999 BKN004 07/07 Q0997
EGMC - Southend-On-Sea, United Kingdom
Distance from station: SSW 50mi, 80km
Updated: 22/11/2019 04:20
Partly cloudy
Partly cloudy
 Wind from SSE
Wind: SSE 9 mph , 15 km/h
Temperature: 7°C
Wind Chill: 4°C
Dew Point: 6°C
Humidity: 93%
Barometer: 997 hPa
Clouds: Partly cloudy
Visibility: 5 miles , 8 km
Cloud details: Few Clouds 518 m
Partly cloudy 975 m
2019/11/22 04:20 EGMC 220420Z 16008KT 8000 FEW017 SCT032 07/06 Q0997